createdAt,value
2018-03-24T00:00:03.139Z,16.13
2018-03-24T00:02:30.708Z,16.53
2018-03-24T00:04:58.345Z,17.23
2018-03-24T00:07:25.971Z,17.37
2018-03-24T00:09:53.534Z,14.73
2018-03-24T00:12:21.097Z,17.30
2018-03-24T00:14:48.691Z,14.73
2018-03-24T00:17:16.290Z,12.37
2018-03-24T00:19:43.870Z,14.03
2018-03-24T00:22:11.511Z,11.90
2018-03-24T00:24:39.135Z,14.17
2018-03-24T00:27:06.721Z,14.90
2018-03-24T00:29:34.293Z,20.90
2018-03-24T00:32:01.878Z,15.53
2018-03-24T00:34:29.451Z,14.40
2018-03-24T00:36:57.050Z,13.13
2018-03-24T00:39:24.613Z,13.37
2018-03-24T00:41:52.230Z,16.20
2018-03-24T00:44:19.790Z,17.07
2018-03-24T00:46:47.355Z,17.73
2018-03-24T00:49:14.991Z,19.20
2018-03-24T00:51:42.563Z,24.40
2018-03-24T00:54:10.195Z,21.37
2018-03-24T00:56:37.812Z,21.50
2018-03-24T00:59:05.437Z,22.83
2018-03-24T01:01:33.002Z,25.37
2018-03-24T01:04:00.563Z,26.57
2018-03-24T01:06:28.133Z,30.23
2018-03-24T01:08:56.695Z,31.47
2018-03-24T01:11:24.274Z,32.90
2018-03-24T01:13:51.839Z,27.30
2018-03-24T01:16:19.450Z,25.27
2018-03-24T01:18:47.009Z,27.70
2018-03-24T01:21:14.578Z,31.83
2018-03-24T01:23:42.154Z,33.80
2018-03-24T01:26:09.721Z,35.20
2018-03-24T01:28:37.305Z,30.13
2018-03-24T01:31:04.872Z,30.17
2018-03-24T01:33:32.480Z,25.47
2018-03-24T01:36:00.046Z,27.50
2018-03-24T01:38:27.615Z,30.50
2018-03-24T01:40:55.204Z,27.60
2018-03-24T01:43:22.769Z,27.87
2018-03-24T01:45:50.341Z,23.40
2018-03-24T01:48:17.894Z,20.23
2018-03-24T01:50:45.502Z,22.50
2018-03-24T01:53:13.112Z,27.10
2018-03-24T01:55:40.674Z,23.60
2018-03-24T01:58:08.263Z,25.00
2018-03-24T02:00:35.841Z,23.70
2018-03-24T02:03:03.428Z,26.23
2018-03-24T02:05:30.998Z,21.33
2018-03-24T02:07:58.598Z,18.87
2018-03-24T02:10:26.159Z,17.47
2018-03-24T02:12:53.733Z,19.37
2018-03-24T02:15:21.321Z,19.07
2018-03-24T02:17:48.895Z,17.60
2018-03-24T02:20:18.903Z,15.57
2018-03-24T02:22:46.462Z,16.57
2018-03-24T02:25:24.029Z,15.87
2018-03-24T02:27:51.594Z,13.87
2018-03-24T02:30:19.203Z,15.17
2018-03-24T02:32:46.798Z,16.03
2018-03-24T02:35:14.363Z,21.07
2018-03-24T02:37:41.939Z,17.20
2018-03-24T02:40:09.512Z,17.17
2018-03-24T02:42:37.145Z,16.40
2018-03-24T02:45:04.716Z,15.00
2018-03-24T02:47:32.351Z,16.00
2018-03-24T02:49:59.922Z,14.60
2018-03-24T02:52:27.486Z,14.00
2018-03-24T02:54:55.064Z,15.10
2018-03-24T02:57:22.704Z,15.50
2018-03-24T02:59:50.271Z,14.37
2018-03-24T03:02:17.847Z,14.63
2018-03-24T03:04:45.499Z,26.87
2018-03-24T03:07:13.065Z,16.80
2018-03-24T03:09:40.637Z,19.50
2018-03-24T03:12:08.206Z,16.00
2018-03-24T03:14:35.849Z,14.80
2018-03-24T03:17:03.480Z,14.97
2018-03-24T03:19:31.123Z,16.60
2018-03-24T03:21:58.805Z,15.43
2018-03-24T03:24:26.395Z,12.93
2018-03-24T03:26:54.036Z,17.10
2018-03-24T03:29:21.614Z,13.00
2018-03-24T03:31:49.210Z,16.57
2018-03-24T03:34:16.896Z,14.00
2018-03-24T03:36:44.495Z,14.23
2018-03-24T03:39:12.123Z,15.60
2018-03-24T03:41:39.804Z,15.27
2018-03-24T03:44:07.432Z,15.00
2018-03-24T03:46:35.051Z,16.60
2018-03-24T03:49:02.636Z,16.30
2018-03-24T03:51:30.199Z,15.43
2018-03-24T03:53:57.759Z,16.03
2018-03-24T03:56:25.346Z,16.03
2018-03-24T03:58:52.970Z,15.13
2018-03-24T04:01:20.543Z,16.27
2018-03-24T04:03:48.112Z,15.07
2018-03-24T04:06:15.673Z,15.90
2018-03-24T04:08:43.248Z,17.00
2018-03-24T04:11:10.829Z,17.50
2018-03-24T04:13:38.456Z,15.70
2018-03-24T04:16:06.074Z,17.93
2018-03-24T04:18:33.641Z,14.50
2018-03-24T04:21:01.240Z,15.70
2018-03-24T04:23:28.807Z,14.03
2018-03-24T04:25:56.507Z,15.03
2018-03-24T04:28:24.066Z,17.20
2018-03-24T04:30:51.625Z,14.40
2018-03-24T04:33:19.204Z,20.80
2018-03-24T04:35:46.805Z,18.70
2018-03-24T04:38:14.430Z,14.83
2018-03-24T04:40:42.055Z,15.70
2018-03-24T04:43:09.625Z,15.20
2018-03-24T04:45:37.262Z,14.63
2018-03-24T04:48:04.832Z,16.50
2018-03-24T04:50:32.640Z,16.13
2018-03-24T04:53:00.271Z,17.23
2018-03-24T04:55:27.844Z,16.03
2018-03-24T04:57:55.417Z,17.00
2018-03-24T05:00:23.039Z,16.10
2018-03-24T05:02:50.728Z,16.00
2018-03-24T05:05:18.348Z,15.07
2018-03-24T05:07:45.974Z,15.97
2018-03-24T05:10:13.553Z,17.97
2018-03-24T05:12:41.119Z,14.60
2018-03-24T05:15:08.753Z,16.10
2018-03-24T05:17:36.315Z,16.07
2018-03-24T05:20:03.930Z,14.73
2018-03-24T05:22:31.567Z,18.20
2018-03-24T05:24:59.210Z,16.53
2018-03-24T05:27:26.909Z,16.23
2018-03-24T05:29:54.478Z,16.33
2018-03-24T05:32:22.047Z,13.27
2018-03-24T05:34:49.628Z,15.40
2018-03-24T05:37:17.255Z,16.43
2018-03-24T05:39:44.948Z,16.80
2018-03-24T05:42:12.524Z,15.50
2018-03-24T05:44:40.148Z,14.63
2018-03-24T05:47:07.732Z,16.30
2018-03-24T05:49:35.296Z,20.97
2018-03-24T05:52:02.974Z,14.63
2018-03-24T05:54:30.620Z,15.97
2018-03-24T05:56:58.189Z,13.27
2018-03-24T05:59:25.819Z,15.43
2018-03-24T06:01:53.383Z,15.63
2018-03-24T06:04:21.019Z,15.70
2018-03-24T06:06:48.639Z,19.47
2018-03-24T06:09:16.207Z,16.20
2018-03-24T06:11:43.778Z,17.50
2018-03-24T06:14:11.469Z,14.80
2018-03-24T06:16:39.120Z,16.87
2018-03-24T06:19:06.754Z,15.30
2018-03-24T06:21:34.324Z,14.97
2018-03-24T06:24:01.960Z,16.40
2018-03-24T06:26:29.591Z,13.30
2018-03-24T06:28:57.254Z,11.50
2018-03-24T06:31:27.261Z,13.17
2018-03-24T06:33:54.883Z,14.03
2018-03-24T06:36:22.518Z,18.40
2018-03-24T06:38:50.147Z,18.87
2018-03-24T06:41:17.727Z,16.60
2018-03-24T06:43:45.351Z,23.13
2018-03-24T06:46:13.031Z,23.10
2018-03-24T06:48:40.662Z,18.33
2018-03-24T06:51:08.234Z,21.10
2018-03-24T06:53:35.820Z,20.20
2018-03-24T06:56:03.391Z,16.87
2018-03-24T06:58:31.076Z,17.70
2018-03-24T07:00:58.670Z,17.00
2018-03-24T07:03:26.246Z,16.03
2018-03-24T07:05:53.899Z,13.63
2018-03-24T07:08:21.462Z,12.63
2018-03-24T07:10:49.074Z,12.03
2018-03-24T07:13:16.634Z,11.20
2018-03-24T07:15:44.303Z,10.77
2018-03-24T07:18:11.951Z,11.27
2018-03-24T07:20:39.515Z,11.40
2018-03-24T07:23:07.083Z,10.17
2018-03-24T07:25:34.714Z,10.57
2018-03-24T07:28:02.388Z,8.03
2018-03-24T07:30:30.011Z,8.23
2018-03-24T07:32:57.591Z,14.93
2018-03-24T07:35:25.186Z,11.50
2018-03-24T07:37:52.818Z,11.53
2018-03-24T07:40:20.458Z,16.03
2018-03-24T07:42:48.029Z,8.47
2018-03-24T07:45:15.660Z,10.33
2018-03-24T07:47:43.258Z,10.13
2018-03-24T07:50:10.829Z,9.57
2018-03-24T07:52:38.421Z,13.07
2018-03-24T07:55:05.985Z,15.37
2018-03-24T07:57:33.570Z,17.97
2018-03-24T08:00:01.151Z,15.97
2018-03-24T08:02:28.786Z,12.73
2018-03-24T08:04:56.355Z,16.90
2018-03-24T08:07:23.993Z,10.57
2018-03-24T08:09:51.567Z,15.70
2018-03-24T08:12:19.136Z,11.90
2018-03-24T08:14:46.707Z,25.83
2018-03-24T08:17:14.274Z,14.47
2018-03-24T08:19:41.907Z,16.37
2018-03-24T08:22:09.471Z,18.30
2018-03-24T08:24:37.030Z,16.03
2018-03-24T08:27:04.665Z,17.57
2018-03-24T08:29:32.296Z,17.20
2018-03-24T08:31:59.894Z,13.10
2018-03-24T08:34:27.458Z,13.73
2018-03-24T08:36:55.090Z,15.50
2018-03-24T08:39:22.654Z,15.13
2018-03-24T08:41:50.263Z,16.60
2018-03-24T08:44:17.839Z,14.60
2018-03-24T08:46:45.411Z,12.50
2018-03-24T08:49:12.980Z,17.60
2018-03-24T08:51:40.551Z,12.87
2018-03-24T08:54:08.166Z,13.20
2018-03-24T08:56:35.733Z,13.07
2018-03-24T08:59:03.369Z,16.13
2018-03-24T09:01:31.007Z,14.07
2018-03-24T09:03:58.585Z,16.33
2018-03-24T09:06:26.161Z,14.07
2018-03-24T09:08:53.786Z,14.20
2018-03-24T09:11:21.403Z,17.60
2018-03-24T09:13:48.965Z,15.40
2018-03-24T09:16:16.603Z,14.57
2018-03-24T09:18:44.180Z,15.30
2018-03-24T09:21:11.831Z,22.50
2018-03-24T09:23:39.451Z,16.30
2018-03-24T09:26:07.138Z,21.93
2018-03-24T09:28:34.820Z,18.37
2018-03-24T09:31:02.448Z,18.43
2018-03-24T09:33:30.059Z,13.60
2018-03-24T09:35:57.636Z,12.00
2018-03-24T09:38:25.203Z,12.83
2018-03-24T09:40:52.769Z,23.57
2018-03-24T09:43:20.461Z,21.00
2018-03-24T09:45:48.703Z,15.20
2018-03-24T09:48:16.284Z,14.53
2018-03-24T09:50:43.903Z,18.70
2018-03-24T09:53:11.481Z,14.87
2018-03-24T09:55:39.113Z,22.70
2018-03-24T09:58:06.695Z,17.90
2018-03-24T10:00:34.395Z,20.00
2018-03-24T10:03:02.022Z,16.67
2018-03-24T10:05:29.634Z,15.90
2018-03-24T10:07:57.202Z,14.27
2018-03-24T10:10:24.779Z,15.83
2018-03-24T10:12:53.211Z,15.80
2018-03-24T10:15:20.785Z,13.20
2018-03-24T10:17:48.350Z,13.03
2018-03-24T10:20:15.922Z,16.00
2018-03-24T10:23:00.901Z,16.10
2018-03-24T10:25:28.482Z,17.10
2018-03-24T10:27:56.050Z,14.47
2018-03-24T10:30:23.683Z,15.00
2018-03-24T10:32:51.255Z,16.53
2018-03-24T10:35:18.940Z,12.53
2018-03-24T10:38:00.990Z,13.37
2018-03-24T10:40:28.571Z,13.20
2018-03-24T10:43:01.747Z,13.50
2018-03-24T10:45:29.377Z,11.87
2018-03-24T10:47:56.998Z,15.27
2018-03-24T10:50:24.567Z,17.47
2018-03-24T10:52:52.205Z,13.40
2018-03-24T10:55:19.781Z,16.40
2018-03-24T10:57:47.350Z,15.53
2018-03-24T11:00:15.016Z,13.20
2018-03-24T11:02:42.591Z,13.70
2018-03-24T11:05:10.275Z,13.30
2018-03-24T11:07:37.959Z,12.00
2018-03-24T11:10:05.531Z,14.17
2018-03-24T11:12:33.103Z,11.00
2018-03-24T11:15:00.671Z,11.60
2018-03-24T11:17:28.234Z,12.93
2018-03-24T11:19:55.869Z,12.93
2018-03-24T11:22:23.420Z,11.97
2018-03-24T11:24:51.108Z,13.47
2018-03-24T11:27:18.746Z,13.17
2018-03-24T11:29:46.392Z,12.43
2018-03-24T11:32:14.007Z,16.00
2018-03-24T11:34:41.597Z,15.40
2018-03-24T11:37:09.174Z,13.43
2018-03-24T11:39:36.734Z,17.40
2018-03-24T11:42:04.371Z,19.80
2018-03-24T11:44:31.942Z,13.47
2018-03-24T11:46:59.568Z,17.07
2018-03-24T11:49:27.134Z,14.63
2018-03-24T11:51:54.781Z,12.97
2018-03-24T11:57:23.185Z,12.70
2018-03-24T11:59:50.815Z,22.23
2018-03-24T12:02:18.478Z,15.80
2018-03-24T12:04:46.095Z,13.47
2018-03-24T12:07:13.655Z,12.27
2018-03-24T12:09:41.263Z,11.80
2018-03-24T12:12:08.838Z,11.50
2018-03-24T12:14:36.458Z,12.47
2018-03-24T12:17:04.143Z,11.80
2018-03-24T12:19:31.788Z,10.50
2018-03-24T12:21:59.381Z,19.13
2018-03-24T12:24:27.021Z,12.00
2018-03-24T12:26:54.586Z,12.17
2018-03-24T12:29:22.268Z,9.67
2018-03-24T12:31:49.883Z,9.43
2018-03-24T12:34:17.451Z,11.00
2018-03-24T12:36:45.083Z,9.10
2018-03-24T12:39:12.645Z,11.87
2018-03-24T12:41:40.280Z,12.57
2018-03-24T12:44:07.846Z,13.90
2018-03-24T12:46:35.402Z,9.57
2018-03-24T12:49:02.967Z,9.63
2018-03-24T12:51:30.582Z,12.57
2018-03-24T12:53:58.188Z,9.83
2018-03-24T12:56:25.775Z,12.30
2018-03-24T12:58:53.420Z,12.40
2018-03-24T13:01:21.057Z,11.13
2018-03-24T13:03:48.635Z,9.20
2018-03-24T13:06:16.203Z,11.70
2018-03-24T13:08:43.822Z,11.13
2018-03-24T13:11:11.508Z,12.33
2018-03-24T13:13:39.072Z,13.23
2018-03-24T13:16:06.743Z,11.23
2018-03-24T13:18:34.371Z,11.03
2018-03-24T13:21:01.926Z,9.77
2018-03-24T13:23:29.555Z,13.60
2018-03-24T13:25:57.113Z,14.00
2018-03-24T13:28:24.670Z,15.60
2018-03-24T13:30:52.294Z,16.43
2018-03-24T13:33:19.918Z,14.20
2018-03-24T13:35:47.534Z,17.80
2018-03-24T13:38:15.082Z,14.40
2018-03-24T13:40:42.795Z,14.80
2018-03-24T13:43:10.420Z,20.93
2018-03-24T13:45:38.038Z,30.00
2018-03-24T13:48:05.620Z,27.70
2018-03-24T13:50:33.187Z,29.60
2018-03-24T13:53:00.757Z,25.73
2018-03-24T13:55:28.358Z,20.60
2018-03-24T13:57:55.985Z,23.50
2018-03-24T14:00:23.570Z,23.07
2018-03-24T14:02:51.150Z,25.67
2018-03-24T14:05:18.718Z,23.80
2018-03-24T14:07:46.348Z,17.27
2018-03-24T14:10:13.982Z,21.20
2018-03-24T14:12:41.598Z,15.60
2018-03-24T14:15:09.275Z,21.27
2018-03-24T14:17:36.838Z,17.87
2018-03-24T14:20:04.404Z,15.70
2018-03-24T14:22:32.022Z,16.47
2018-03-24T14:24:59.586Z,21.20
2018-03-24T14:27:27.161Z,19.37
2018-03-24T14:29:54.012Z,18.70
2018-03-24T14:32:21.772Z,21.77
2018-03-24T14:34:49.382Z,18.87
2018-03-24T14:37:16.954Z,16.77
2018-03-24T14:39:44.526Z,16.00
2018-03-24T14:42:12.176Z,13.20
2018-03-24T14:44:39.746Z,10.93
2018-03-24T14:47:07.306Z,13.90
2018-03-24T14:49:34.922Z,17.00
2018-03-24T14:52:02.543Z,12.70
2018-03-24T14:54:30.171Z,13.70
2018-03-24T14:56:57.825Z,10.80
2018-03-24T14:59:25.444Z,9.40
2018-03-24T15:01:53.013Z,9.50
2018-03-24T15:04:20.635Z,10.67
2018-03-24T15:06:48.249Z,9.67
2018-03-24T15:09:15.806Z,9.10
2018-03-24T15:11:43.362Z,9.63
2018-03-24T15:14:10.926Z,9.53
2018-03-24T15:16:38.486Z,10.60
2018-03-24T15:19:06.047Z,9.37
2018-03-24T15:21:33.743Z,9.67
2018-03-24T15:24:01.386Z,8.93
2018-03-24T15:26:29.015Z,10.80
2018-03-24T15:32:07.146Z,9.57
2018-03-24T15:34:46.742Z,9.73
2018-03-24T15:37:14.389Z,16.37
2018-03-24T15:39:42.012Z,13.17
2018-03-24T15:42:09.662Z,12.90
2018-03-24T15:44:37.230Z,13.40
2018-03-24T15:47:04.806Z,19.27
2018-03-24T15:49:32.366Z,23.00
2018-03-24T15:51:59.982Z,25.30
2018-03-24T15:54:27.547Z,20.90
2018-03-24T15:56:55.125Z,25.67
2018-03-24T15:59:22.733Z,28.57
2018-03-24T16:01:50.398Z,29.40
2018-03-24T16:04:18.032Z,24.73
2018-03-24T16:06:45.656Z,29.43
2018-03-24T16:09:13.283Z,22.53
2018-03-24T16:11:40.848Z,26.70
2018-03-24T16:14:08.411Z,24.97
2018-03-24T16:16:35.987Z,27.07
2018-03-24T16:19:03.546Z,24.27
2018-03-24T16:21:31.257Z,28.50
2018-03-24T16:23:58.879Z,31.80
2018-03-24T16:26:26.513Z,31.10
2018-03-24T16:28:54.152Z,33.37
2018-03-24T16:31:21.714Z,36.80
2018-03-24T16:33:49.456Z,33.97
2018-03-24T16:36:17.108Z,40.37
2018-03-24T16:38:44.798Z,38.93
2018-03-24T16:41:12.504Z,34.40
2018-03-24T16:43:40.190Z,37.90
2018-03-24T16:46:08.083Z,32.07
2018-03-24T16:48:36.106Z,32.53
2018-03-24T16:51:03.788Z,32.70
2018-03-24T16:53:31.475Z,32.90
2018-03-24T16:55:59.097Z,29.80
2018-03-24T16:58:26.760Z,27.13
2018-03-24T17:00:54.359Z,30.13
2018-03-24T17:03:21.934Z,31.27
2018-03-24T17:05:49.559Z,34.80
2018-03-24T17:08:17.133Z,41.17
2018-03-24T17:10:44.768Z,41.47
2018-03-24T17:13:12.479Z,48.67
2018-03-24T17:15:40.068Z,57.63
2018-03-24T17:18:07.675Z,46.67
2018-03-24T17:20:35.272Z,40.37
2018-03-24T17:23:02.990Z,41.23
2018-03-24T17:25:30.612Z,52.60
2018-03-24T17:27:58.216Z,53.00
2018-03-24T17:30:25.863Z,38.40
2018-03-24T17:32:53.423Z,34.97
2018-03-24T17:35:21.053Z,45.67
2018-03-24T17:37:48.682Z,59.30
2018-03-24T17:40:16.315Z,52.13
2018-03-24T17:42:43.950Z,58.07
2018-03-24T17:45:11.582Z,45.93
2018-03-24T17:47:39.198Z,41.10
2018-03-24T17:50:06.820Z,35.77
2018-03-24T17:52:34.446Z,40.23
2018-03-24T17:55:02.018Z,38.03
2018-03-24T17:57:29.634Z,32.17
2018-03-24T17:59:57.210Z,27.53
2018-03-24T18:02:24.769Z,27.97
2018-03-24T18:04:52.391Z,26.73
2018-03-24T18:07:19.951Z,25.63
2018-03-24T18:09:47.579Z,24.07
2018-03-24T18:12:15.211Z,24.00
2018-03-24T18:14:42.831Z,23.10
2018-03-24T18:17:10.402Z,21.70
2018-03-24T18:19:38.014Z,21.70
2018-03-24T18:22:05.704Z,25.97
2018-03-24T18:24:33.289Z,20.00
2018-03-24T18:27:00.867Z,17.20
2018-03-24T18:29:28.444Z,20.27
2018-03-24T18:31:56.015Z,19.00
2018-03-24T18:34:23.596Z,17.87
2018-03-24T18:36:51.158Z,15.60
2018-03-24T18:39:18.726Z,15.70
2018-03-24T18:41:46.352Z,13.10
2018-03-24T18:44:14.046Z,13.27
2018-03-24T18:46:41.649Z,14.70
2018-03-24T18:49:09.316Z,14.80
2018-03-24T18:51:36.886Z,16.23
2018-03-24T18:54:04.454Z,15.20
2018-03-24T18:56:32.022Z,13.53
2018-03-24T18:58:59.608Z,15.20
2018-03-24T19:01:27.182Z,13.87
2018-03-24T19:03:54.743Z,12.73
2018-03-24T19:06:22.362Z,13.60
2018-03-24T19:08:49.926Z,12.50
2018-03-24T19:11:17.495Z,13.07
2018-03-24T19:13:45.070Z,12.43
2018-03-24T19:16:12.647Z,12.47
2018-03-24T19:18:40.222Z,50.53
2018-03-24T19:21:07.804Z,13.10
2018-03-24T19:23:35.379Z,14.73
2018-03-24T19:26:02.958Z,14.53
2018-03-24T19:28:30.574Z,12.00
2018-03-24T19:30:58.133Z,13.57
2018-03-24T19:33:25.700Z,12.30
2018-03-24T19:35:53.271Z,13.27
2018-03-24T19:38:20.831Z,12.50
2018-03-24T19:40:48.398Z,11.00
2018-03-24T19:43:15.972Z,12.30
2018-03-24T19:45:43.587Z,14.80
2018-03-24T19:48:11.155Z,11.23
2018-03-24T19:50:38.728Z,11.20
2018-03-24T19:53:06.360Z,12.30
2018-03-24T19:55:33.923Z,12.60
2018-03-24T19:58:01.500Z,10.83
2018-03-24T20:00:29.062Z,11.60
2018-03-24T20:02:56.704Z,11.70
2018-03-24T20:05:24.266Z,10.63
2018-03-24T20:07:51.957Z,12.60
2018-03-24T20:10:19.530Z,11.80
2018-03-24T20:12:47.103Z,12.50
2018-03-24T20:15:14.750Z,12.60
2018-03-24T20:17:42.381Z,12.07
2018-03-24T20:20:10.022Z,13.27
2018-03-24T20:22:37.596Z,12.00
2018-03-24T20:25:05.211Z,15.10
2018-03-24T20:27:32.835Z,14.47
2018-03-24T20:30:00.469Z,15.47
2018-03-24T20:32:28.074Z,13.40
2018-03-24T20:34:55.634Z,14.60
2018-03-24T20:37:23.285Z,13.63
2018-03-24T20:39:50.864Z,13.73
2018-03-24T20:42:18.583Z,12.57
2018-03-24T20:44:46.087Z,13.37
2018-03-24T20:47:13.741Z,13.50
2018-03-24T20:49:41.371Z,13.23
2018-03-24T20:52:08.996Z,12.33
2018-03-24T20:54:36.655Z,13.33
2018-03-24T20:57:04.276Z,14.17
2018-03-24T20:59:31.856Z,14.30
2018-03-24T21:01:59.479Z,14.83
2018-03-24T21:04:27.050Z,13.67
2018-03-24T21:06:54.628Z,13.30
2018-03-24T21:09:22.320Z,14.07
2018-03-24T21:11:49.897Z,14.30
2018-03-24T21:14:17.518Z,14.43
2018-03-24T21:16:45.155Z,14.77
2018-03-24T21:19:12.714Z,13.70
2018-03-24T21:21:40.347Z,14.07
2018-03-24T21:24:07.978Z,15.27
2018-03-24T21:26:35.602Z,15.43
2018-03-24T21:29:03.173Z,15.87
2018-03-24T21:31:30.813Z,16.10
2018-03-24T21:33:58.408Z,14.63
2018-03-24T21:36:25.972Z,15.60
2018-03-24T21:38:53.607Z,14.03
2018-03-24T21:41:21.171Z,15.50
2018-03-24T21:43:48.811Z,15.70
2018-03-24T21:46:16.375Z,16.07
2018-03-24T21:48:44.043Z,16.13
2018-03-24T21:51:11.664Z,16.17
2018-03-24T21:53:39.327Z,16.77
2018-03-24T21:56:06.911Z,16.60
2018-03-24T21:58:34.574Z,16.70
2018-03-24T22:01:02.145Z,16.13
2018-03-24T22:03:29.738Z,16.67
2018-03-24T22:05:57.366Z,16.80
2018-03-24T22:08:24.926Z,17.00
2018-03-24T22:10:52.529Z,17.70
2018-03-24T22:13:20.094Z,16.97
2018-03-24T22:15:47.716Z,16.40
2018-03-24T22:18:15.287Z,17.03
2018-03-24T22:20:42.854Z,15.40
2018-03-24T22:23:10.573Z,15.80
2018-03-24T22:25:38.138Z,16.60
2018-03-24T22:28:05.767Z,16.30
2018-03-24T22:30:33.333Z,17.10
2018-03-24T22:33:00.885Z,18.47
2018-03-24T22:35:28.517Z,17.47
2018-03-24T22:37:56.128Z,17.33
2018-03-24T22:40:23.724Z,17.90
2018-03-24T22:42:51.359Z,19.20
2018-03-24T22:45:19.000Z,16.80
2018-03-24T22:47:46.729Z,17.70
2018-03-24T22:50:14.362Z,16.20
2018-03-24T22:52:41.924Z,16.10
2018-03-24T22:55:09.498Z,16.90
2018-03-24T22:57:37.190Z,16.67
2018-03-24T23:00:04.957Z,15.27
2018-03-24T23:02:32.574Z,17.23
2018-03-24T23:05:00.131Z,19.27
2018-03-24T23:07:27.698Z,15.80
2018-03-24T23:09:55.262Z,16.93
2018-03-24T23:12:22.903Z,17.83
2018-03-24T23:14:50.538Z,17.10
2018-03-24T23:17:18.146Z,16.67
2018-03-24T23:19:45.703Z,15.97
2018-03-24T23:22:13.265Z,16.83
2018-03-24T23:24:40.826Z,17.40
2018-03-24T23:27:08.389Z,16.53
2018-03-24T23:29:35.963Z,15.73
2018-03-24T23:32:03.586Z,16.37
2018-03-24T23:34:31.209Z,17.47
2018-03-24T23:36:58.827Z,17.30
2018-03-24T23:39:26.392Z,17.67
2018-03-24T23:41:54.022Z,17.57
2018-03-24T23:44:21.586Z,19.97
2018-03-24T23:46:49.218Z,19.77
2018-03-24T23:49:16.778Z,21.70
2018-03-24T23:51:44.374Z,25.27
2018-03-24T23:54:11.939Z,20.20
2018-03-24T23:56:39.512Z,22.57
2018-03-24T23:59:07.084Z,18.93
